sensor_id;sensor_type;location;lat;lon;timestamp;P1;durP1;ratioP1;P2;durP2;ratioP2
17949;SDS011;9100;48.700;9.316;2022-08-01T00:00:40;4.1;;;2.1;;
17949;SDS011;9100;48.700;9.316;2022-08-01T00:01:40;4.1;;;2.1;;
17949;SDS011;9100;48.700;9.316;2022-08-01T00:02:40;4.1;;;2.1;;
17949;SDS011;9100;48.700;9.316;2022-08-01T00:03:40;4.1;;;2.1;;
17949;SDS011;9100;48.700;9.316;2022-08-01T00:04:13;1.7;;;1.6;;
17949;SDS011;9100;48.700;9.316;2022-08-01T00:04:40;1.7;;;1.6;;
17949;SDS011;9100;48.700;9.316;2022-08-01T00:05:40;1.7;;;1.6;;
17949;SDS011;9100;48.700;9.316;2022-08-01T00:06:40;1.7;;;1.6;;
17949;SDS011;9100;48.700;9.316;2022-08-01T00:07:40;1.7;;;1.6;;
17949;SDS011;9100;48.700;9.316;2022-08-01T00:08:40;1.7;;;1.6;;
17949;SDS011;9100;48.700;9.316;2022-08-01T00:09:12;2.3;;;2.1;;
17949;SDS011;9100;48.700;9.316;2022-08-01T00:09:40;2.3;;;2.1;;
17949;SDS011;9100;48.700;9.316;2022-08-01T00:10:40;2.3;;;2.1;;
17949;SDS011;9100;48.700;9.316;2022-08-01T00:11:40;2.3;;;2.1;;
17949;SDS011;9100;48.700;9.316;2022-08-01T00:12:41;2.3;;;2.1;;
17949;SDS011;9100;48.700;9.316;2022-08-01T00:13:40;2.3;;;2.1;;
17949;SDS011;9100;48.700;9.316;2022-08-01T00:14:12;2;;;1.9;;
17949;SDS011;9100;48.700;9.316;2022-08-01T00:14:41;2;;;1.9;;
17949;SDS011;9100;48.700;9.316;2022-08-01T00:15:40;2;;;1.9;;
17949;SDS011;9100;48.700;9.316;2022-08-01T00:16:41;2;;;1.9;;
17949;SDS011;9100;48.700;9.316;2022-08-01T00:17:40;2;;;1.9;;
17949;SDS011;9100;48.700;9.316;2022-08-01T00:18:40;2;;;1.9;;
17949;SDS011;9100;48.700;9.316;2022-08-01T00:19:12;2.2;;;2;;
17949;SDS011;9100;48.700;9.316;2022-08-01T00:19:40;2.2;;;2;;
17949;SDS011;9100;48.700;9.316;2022-08-01T00:20:40;2.2;;;2;;
17949;SDS011;9100;48.700;9.316;2022-08-01T00:21:40;2.2;;;2;;
17949;SDS011;9100;48.700;9.316;2022-08-01T00:22:40;2.2;;;2;;
17949;SDS011;9100;48.700;9.316;2022-08-01T00:23:41;2.2;;;2;;
17949;SDS011;9100;48.700;9.316;2022-08-01T00:24:13;3.5;;;2.2;;
17949;SDS011;9100;48.700;9.316;2022-08-01T00:24:40;3.5;;;2.2;;
17949;SDS011;9100;48.700;9.316;2022-08-01T00:25:40;3.5;;;2.2;;
17949;SDS011;9100;48.700;9.316;2022-08-01T00:26:40;3.5;;;2.2;;
17949;SDS011;9100;48.700;9.316;2022-08-01T00:27:40;3.5;;;2.2;;
17949;SDS011;9100;48.700;9.316;2022-08-01T00:28:41;3.5;;;2.2;;
17949;SDS011;9100;48.700;9.316;2022-08-01T00:29:12;2.3;;;2.1;;
17949;SDS011;9100;48.700;9.316;2022-08-01T00:29:40;2.3;;;2.1;;
17949;SDS011;9100;48.700;9.316;2022-08-01T00:30:40;2.3;;;2.1;;
17949;SDS011;9100;48.700;9.316;2022-08-01T00:31:40;2.3;;;2.1;;
17949;SDS011;9100;48.700;9.316;2022-08-01T00:32:41;2.3;;;2.1;;
17949;SDS011;9100;48.700;9.316;2022-08-01T00:33:40;2.3;;;2.1;;
17949;SDS011;9100;48.700;9.316;2022-08-01T00:34:13;2.4;;;2.1;;
17949;SDS011;9100;48.700;9.316;2022-08-01T00:34:40;2.4;;;2.1;;
17949;SDS011;9100;48.700;9.316;2022-08-01T00:35:40;2.4;;;2.1;;
17949;SDS011;9100;48.700;9.316;2022-08-01T00:36:40;2.4;;;2.1;;
17949;SDS011;9100;48.700;9.316;2022-08-01T00:37:41;2.4;;;2.1;;
17949;SDS011;9100;48.700;9.316;2022-08-01T00:38:40;2.4;;;2.1;;
17949;SDS011;9100;48.700;9.316;2022-08-01T00:39:13;2.3;;;2.1;;
17949;SDS011;9100;48.700;9.316;2022-08-01T00:39:41;2.3;;;2.1;;
17949;SDS011;9100;48.700;9.316;2022-08-01T00:40:40;2.3;;;2.1;;
17949;SDS011;9100;48.700;9.316;2022-08-01T00:41:40;2.3;;;2.1;;
17949;SDS011;9100;48.700;9.316;2022-08-01T00:42:40;2.3;;;2.1;;
17949;SDS011;9100;48.700;9.316;2022-08-01T00:43:41;2.3;;;2.1;;
17949;SDS011;9100;48.700;9.316;2022-08-01T00:44:13;2;;;1.9;;
17949;SDS011;9100;48.700;9.316;2022-08-01T00:44:41;2;;;1.9;;
17949;SDS011;9100;48.700;9.316;2022-08-01T00:45:40;2;;;1.9;;
17949;SDS011;9100;48.700;9.316;2022-08-01T00:46:40;2;;;1.9;;
17949;SDS011;9100;48.700;9.316;2022-08-01T00:47:40;2;;;1.9;;
17949;SDS011;9100;48.700;9.316;2022-08-01T00:48:40;2;;;1.9;;
17949;SDS011;9100;48.700;9.316;2022-08-01T00:49:12;3.2;;;2;;
17949;SDS011;9100;48.700;9.316;2022-08-01T00:49:40;3.2;;;2;;
17949;SDS011;9100;48.700;9.316;2022-08-01T00:50:40;3.2;;;2;;
17949;SDS011;9100;48.700;9.316;2022-08-01T00:51:40;3.2;;;2;;
17949;SDS011;9100;48.700;9.316;2022-08-01T00:52:41;3.2;;;2;;
17949;SDS011;9100;48.700;9.316;2022-08-01T00:53:40;3.2;;;2;;
17949;SDS011;9100;48.700;9.316;2022-08-01T00:54:12;2.3;;;2.2;;
17949;SDS011;9100;48.700;9.316;2022-08-01T00:54:40;2.3;;;2.2;;
17949;SDS011;9100;48.700;9.316;2022-08-01T00:55:40;2.3;;;2.2;;
17949;SDS011;9100;48.700;9.316;2022-08-01T00:56:40;2.3;;;2.2;;
17949;SDS011;9100;48.700;9.316;2022-08-01T00:57:41;2.3;;;2.2;;
17949;SDS011;9100;48.700;9.316;2022-08-01T00:58:40;2.3;;;2.2;;
17949;SDS011;9100;48.700;9.316;2022-08-01T00:59:13;2.4;;;2.2;;
17949;SDS011;9100;48.700;9.316;2022-08-01T00:59:40;2.4;;;2.2;;
17949;SDS011;9100;48.700;9.316;2022-08-01T01:00:40;2.4;;;2.2;;
17949;SDS011;9100;48.700;9.316;2022-08-01T01:01:40;2.4;;;2.2;;
17949;SDS011;9100;48.700;9.316;2022-08-01T01:02:40;2.4;;;2.2;;
17949;SDS011;9100;48.700;9.316;2022-08-01T01:03:40;2.4;;;2.2;;
17949;SDS011;9100;48.700;9.316;2022-08-01T01:04:13;1.9;;;1.8;;
17949;SDS011;9100;48.700;9.316;2022-08-01T01:04:40;1.9;;;1.8;;
17949;SDS011;9100;48.700;9.316;2022-08-01T01:05:44;1.9;;;1.8;;
17949;SDS011;9100;48.700;9.316;2022-08-01T01:06:42;1.9;;;1.8;;
17949;SDS011;9100;48.700;9.316;2022-08-01T01:07:43;1.9;;;1.8;;
17949;SDS011;9100;48.700;9.316;2022-08-01T01:08:41;1.9;;;1.8;;
17949;SDS011;9100;48.700;9.316;2022-08-01T01:09:17;1.5;;;1.4;;
17949;SDS011;9100;48.700;9.316;2022-08-01T01:09:42;1.5;;;1.4;;
17949;SDS011;9100;48.700;9.316;2022-08-01T01:10:43;1.5;;;1.4;;
17949;SDS011;9100;48.700;9.316;2022-08-01T01:11:43;1.5;;;1.4;;
17949;SDS011;9100;48.700;9.316;2022-08-01T01:12:42;1.5;;;1.4;;
17949;SDS011;9100;48.700;9.316;2022-08-01T01:13:41;1.5;;;1.4;;
17949;SDS011;9100;48.700;9.316;2022-08-01T01:14:13;2.7;;;1.9;;
17949;SDS011;9100;48.700;9.316;2022-08-01T01:14:41;2.7;;;1.9;;
17949;SDS011;9100;48.700;9.316;2022-08-01T01:15:41;2.7;;;1.9;;
17949;SDS011;9100;48.700;9.316;2022-08-01T01:16:41;2.7;;;1.9;;
17949;SDS011;9100;48.700;9.316;2022-08-01T01:17:41;2.7;;;1.9;;
17949;SDS011;9100;48.700;9.316;2022-08-01T01:18:43;2.7;;;1.9;;
17949;SDS011;9100;48.700;9.316;2022-08-01T01:19:13;2.8;;;2.6;;
17949;SDS011;9100;48.700;9.316;2022-08-01T01:19:41;2.8;;;2.6;;
17949;SDS011;9100;48.700;9.316;2022-08-01T01:20:41;2.8;;;2.6;;
17949;SDS011;9100;48.700;9.316;2022-08-01T01:21:47;2.8;;;2.6;;
17949;SDS011;9100;48.700;9.316;2022-08-01T01:22:46;2.8;;;2.6;;
17949;SDS011;9100;48.700;9.316;2022-08-01T01:23:44;2.8;;;2.6;;
17949;SDS011;9100;48.700;9.316;2022-08-01T01:24:16;1.9;;;1.8;;
17949;SDS011;9100;48.700;9.316;2022-08-01T01:24:44;1.9;;;1.8;;
17949;SDS011;9100;48.700;9.316;2022-08-01T01:25:52;1.9;;;1.8;;
17949;SDS011;9100;48.700;9.316;2022-08-01T01:26:43;1.9;;;1.8;;
17949;SDS011;9100;48.700;9.316;2022-08-01T01:27:42;1.9;;;1.8;;
17949;SDS011;9100;48.700;9.316;2022-08-01T01:28:48;1.9;;;1.8;;
17949;SDS011;9100;48.700;9.316;2022-08-01T01:29:13;4;;;2.2;;
17949;SDS011;9100;48.700;9.316;2022-08-01T01:29:41;4;;;2.2;;
17949;SDS011;9100;48.700;9.316;2022-08-01T01:30:41;4;;;2.2;;
17949;SDS011;9100;48.700;9.316;2022-08-01T01:31:43;4;;;2.2;;
17949;SDS011;9100;48.700;9.316;2022-08-01T01:32:41;4;;;2.2;;
17949;SDS011;9100;48.700;9.316;2022-08-01T01:33:40;4;;;2.2;;
17949;SDS011;9100;48.700;9.316;2022-08-01T01:34:13;3.6;;;2.6;;
17949;SDS011;9100;48.700;9.316;2022-08-01T01:34:42;3.6;;;2.6;;
17949;SDS011;9100;48.700;9.316;2022-08-01T01:35:42;3.6;;;2.6;;
17949;SDS011;9100;48.700;9.316;2022-08-01T01:36:40;3.6;;;2.6;;
17949;SDS011;9100;48.700;9.316;2022-08-01T01:37:40;3.6;;;2.6;;
17949;SDS011;9100;48.700;9.316;2022-08-01T01:38:42;3.6;;;2.6;;
17949;SDS011;9100;48.700;9.316;2022-08-01T01:39:13;3.7;;;2.3;;
17949;SDS011;9100;48.700;9.316;2022-08-01T01:39:41;3.7;;;2.3;;
17949;SDS011;9100;48.700;9.316;2022-08-01T01:40:40;3.7;;;2.3;;
17949;SDS011;9100;48.700;9.316;2022-08-01T01:41:41;3.7;;;2.3;;
17949;SDS011;9100;48.700;9.316;2022-08-01T01:42:41;3.7;;;2.3;;
17949;SDS011;9100;48.700;9.316;2022-08-01T01:43:40;3.7;;;2.3;;
17949;SDS011;9100;48.700;9.316;2022-08-01T01:44:13;2.4;;;2.2;;
17949;SDS011;9100;48.700;9.316;2022-08-01T01:44:41;2.4;;;2.2;;
17949;SDS011;9100;48.700;9.316;2022-08-01T01:45:41;2.4;;;2.2;;
17949;SDS011;9100;48.700;9.316;2022-08-01T01:46:41;2.4;;;2.2;;
17949;SDS011;9100;48.700;9.316;2022-08-01T01:47:40;2.4;;;2.2;;
17949;SDS011;9100;48.700;9.316;2022-08-01T01:48:40;2.4;;;2.2;;
17949;SDS011;9100;48.700;9.316;2022-08-01T01:49:13;2.3;;;2.2;;
17949;SDS011;9100;48.700;9.316;2022-08-01T01:49:41;2.3;;;2.2;;
17949;SDS011;9100;48.700;9.316;2022-08-01T01:50:41;2.3;;;2.2;;
17949;SDS011;9100;48.700;9.316;2022-08-01T01:51:41;2.3;;;2.2;;
17949;SDS011;9100;48.700;9.316;2022-08-01T01:52:41;2.3;;;2.2;;
17949;SDS011;9100;48.700;9.316;2022-08-01T01:53:41;2.3;;;2.2;;
17949;SDS011;9100;48.700;9.316;2022-08-01T01:54:13;8.7;;;2.6;;
17949;SDS011;9100;48.700;9.316;2022-08-01T01:54:42;8.7;;;2.6;;
17949;SDS011;9100;48.700;9.316;2022-08-01T01:55:41;8.7;;;2.6;;
17949;SDS011;9100;48.700;9.316;2022-08-01T01:56:40;8.7;;;2.6;;
17949;SDS011;9100;48.700;9.316;2022-08-01T01:57:41;8.7;;;2.6;;
17949;SDS011;9100;48.700;9.316;2022-08-01T01:58:41;8.7;;;2.6;;
17949;SDS011;9100;48.700;9.316;2022-08-01T01:59:13;3.7;;;2.8;;
17949;SDS011;9100;48.700;9.316;2022-08-01T01:59:40;3.7;;;2.8;;
17949;SDS011;9100;48.700;9.316;2022-08-01T02:00:40;3.7;;;2.8;;
17949;SDS011;9100;48.700;9.316;2022-08-01T02:01:40;3.7;;;2.8;;
17949;SDS011;9100;48.700;9.316;2022-08-01T02:02:41;3.7;;;2.8;;
17949;SDS011;9100;48.700;9.316;2022-08-01T02:03:40;3.7;;;2.8;;
17949;SDS011;9100;48.700;9.316;2022-08-01T02:04:13;2.2;;;2.1;;
17949;SDS011;9100;48.700;9.316;2022-08-01T02:04:42;2.2;;;2.1;;
17949;SDS011;9100;48.700;9.316;2022-08-01T02:05:40;2.2;;;2.1;;
17949;SDS011;9100;48.700;9.316;2022-08-01T02:06:40;2.2;;;2.1;;
17949;SDS011;9100;48.700;9.316;2022-08-01T02:07:40;2.2;;;2.1;;
17949;SDS011;9100;48.700;9.316;2022-08-01T02:08:41;2.2;;;2.1;;
17949;SDS011;9100;48.700;9.316;2022-08-01T02:09:14;2.7;;;2.5;;
17949;SDS011;9100;48.700;9.316;2022-08-01T02:09:41;2.7;;;2.5;;
17949;SDS011;9100;48.700;9.316;2022-08-01T02:10:40;2.7;;;2.5;;
17949;SDS011;9100;48.700;9.316;2022-08-01T02:11:40;2.7;;;2.5;;
17949;SDS011;9100;48.700;9.316;2022-08-01T02:12:41;2.7;;;2.5;;
17949;SDS011;9100;48.700;9.316;2022-08-01T02:13:40;2.7;;;2.5;;
17949;SDS011;9100;48.700;9.316;2022-08-01T02:14:13;2.6;;;2.4;;
17949;SDS011;9100;48.700;9.316;2022-08-01T02:14:41;2.6;;;2.4;;
17949;SDS011;9100;48.700;9.316;2022-08-01T02:15:40;2.6;;;2.4;;
17949;SDS011;9100;48.700;9.316;2022-08-01T02:16:42;2.6;;;2.4;;
17949;SDS011;9100;48.700;9.316;2022-08-01T02:17:41;2.6;;;2.4;;
17949;SDS011;9100;48.700;9.316;2022-08-01T02:18:41;2.6;;;2.4;;
17949;SDS011;9100;48.700;9.316;2022-08-01T02:19:13;3.1;;;2.5;;
17949;SDS011;9100;48.700;9.316;2022-08-01T02:19:41;3.1;;;2.5;;
17949;SDS011;9100;48.700;9.316;2022-08-01T02:20:40;3.1;;;2.5;;
17949;SDS011;9100;48.700;9.316;2022-08-01T02:21:44;3.1;;;2.5;;
17949;SDS011;9100;48.700;9.316;2022-08-01T02:22:42;3.1;;;2.5;;
17949;SDS011;9100;48.700;9.316;2022-08-01T02:23:40;3.1;;;2.5;;
17949;SDS011;9100;48.700;9.316;2022-08-01T02:24:13;2.4;;;2.2;;
17949;SDS011;9100;48.700;9.316;2022-08-01T02:24:42;2.4;;;2.2;;
17949;SDS011;9100;48.700;9.316;2022-08-01T02:25:42;2.4;;;2.2;;
17949;SDS011;9100;48.700;9.316;2022-08-01T02:26:41;2.4;;;2.2;;
17949;SDS011;9100;48.700;9.316;2022-08-01T02:27:41;2.4;;;2.2;;
17949;SDS011;9100;48.700;9.316;2022-08-01T02:28:41;2.4;;;2.2;;
17949;SDS011;9100;48.700;9.316;2022-08-01T02:29:13;2.6;;;2.4;;
17949;SDS011;9100;48.700;9.316;2022-08-01T02:29:41;2.6;;;2.4;;
17949;SDS011;9100;48.700;9.316;2022-08-01T02:30:42;2.6;;;2.4;;
17949;SDS011;9100;48.700;9.316;2022-08-01T02:31:41;2.6;;;2.4;;
17949;SDS011;9100;48.700;9.316;2022-08-01T02:32:41;2.6;;;2.4;;
17949;SDS011;9100;48.700;9.316;2022-08-01T02:33:41;2.6;;;2.4;;
17949;SDS011;9100;48.700;9.316;2022-08-01T02:34:13;3.9;;;2.5;;
17949;SDS011;9100;48.700;9.316;2022-08-01T02:34:41;3.9;;;2.5;;
17949;SDS011;9100;48.700;9.316;2022-08-01T02:35:41;3.9;;;2.5;;
17949;SDS011;9100;48.700;9.316;2022-08-01T02:36:40;3.9;;;2.5;;
17949;SDS011;9100;48.700;9.316;2022-08-01T02:37:40;3.9;;;2.5;;
17949;SDS011;9100;48.700;9.316;2022-08-01T02:38:41;3.9;;;2.5;;
17949;SDS011;9100;48.700;9.316;2022-08-01T02:39:13;3.6;;;2.6;;
17949;SDS011;9100;48.700;9.316;2022-08-01T02:39:41;3.6;;;2.6;;
17949;SDS011;9100;48.700;9.316;2022-08-01T02:40:41;3.6;;;2.6;;
17949;SDS011;9100;48.700;9.316;2022-08-01T02:41:41;3.6;;;2.6;;
17949;SDS011;9100;48.700;9.316;2022-08-01T02:42:40;3.6;;;2.6;;
17949;SDS011;9100;48.700;9.316;2022-08-01T02:43:42;3.6;;;2.6;;
17949;SDS011;9100;48.700;9.316;2022-08-01T02:44:15;2.3;;;2.2;;
17949;SDS011;9100;48.700;9.316;2022-08-01T02:44:41;2.3;;;2.2;;
17949;SDS011;9100;48.700;9.316;2022-08-01T02:45:43;2.3;;;2.2;;
17949;SDS011;9100;48.700;9.316;2022-08-01T02:46:43;2.3;;;2.2;;
17949;SDS011;9100;48.700;9.316;2022-08-01T02:47:41;2.3;;;2.2;;
17949;SDS011;9100;48.700;9.316;2022-08-01T02:48:41;2.3;;;2.2;;
17949;SDS011;9100;48.700;9.316;2022-08-01T02:49:13;5.3;;;3.1;;
17949;SDS011;9100;48.700;9.316;2022-08-01T02:49:41;5.3;;;3.1;;
17949;SDS011;9100;48.700;9.316;2022-08-01T02:50:42;5.3;;;3.1;;
17949;SDS011;9100;48.700;9.316;2022-08-01T02:51:40;5.3;;;3.1;;
17949;SDS011;9100;48.700;9.316;2022-08-01T02:52:40;5.3;;;3.1;;
17949;SDS011;9100;48.700;9.316;2022-08-01T02:53:41;5.3;;;3.1;;
17949;SDS011;9100;48.700;9.316;2022-08-01T02:54:13;3.9;;;2.6;;
17949;SDS011;9100;48.700;9.316;2022-08-01T02:54:41;3.9;;;2.6;;
17949;SDS011;9100;48.700;9.316;2022-08-01T02:55:41;3.9;;;2.6;;
17949;SDS011;9100;48.700;9.316;2022-08-01T02:56:40;3.9;;;2.6;;
17949;SDS011;9100;48.700;9.316;2022-08-01T02:57:40;3.9;;;2.6;;
17949;SDS011;9100;48.700;9.316;2022-08-01T02:58:40;3.9;;;2.6;;
17949;SDS011;9100;48.700;9.316;2022-08-01T02:59:15;3;;;2.5;;
17949;SDS011;9100;48.700;9.316;2022-08-01T02:59:41;3;;;2.5;;
17949;SDS011;9100;48.700;9.316;2022-08-01T03:00:41;3;;;2.5;;
17949;SDS011;9100;48.700;9.316;2022-08-01T03:01:41;3;;;2.5;;
17949;SDS011;9100;48.700;9.316;2022-08-01T03:02:40;3;;;2.5;;
17949;SDS011;9100;48.700;9.316;2022-08-01T03:03:40;3;;;2.5;;
17949;SDS011;9100;48.700;9.316;2022-08-01T03:04:13;6.7;;;2.6;;
17949;SDS011;9100;48.700;9.316;2022-08-01T03:04:41;6.7;;;2.6;;
17949;SDS011;9100;48.700;9.316;2022-08-01T03:05:40;6.7;;;2.6;;
17949;SDS011;9100;48.700;9.316;2022-08-01T03:06:40;6.7;;;2.6;;
17949;SDS011;9100;48.700;9.316;2022-08-01T03:07:41;6.7;;;2.6;;
17949;SDS011;9100;48.700;9.316;2022-08-01T03:08:40;6.7;;;2.6;;
17949;SDS011;9100;48.700;9.316;2022-08-01T03:09:13;4;;;2.8;;
17949;SDS011;9100;48.700;9.316;2022-08-01T03:09:42;4;;;2.8;;
17949;SDS011;9100;48.700;9.316;2022-08-01T03:10:41;4;;;2.8;;
17949;SDS011;9100;48.700;9.316;2022-08-01T03:11:41;4;;;2.8;;
17949;SDS011;9100;48.700;9.316;2022-08-01T03:12:41;4;;;2.8;;
17949;SDS011;9100;48.700;9.316;2022-08-01T03:13:41;4;;;2.8;;
17949;SDS011;9100;48.700;9.316;2022-08-01T03:14:13;3.6;;;2.4;;
17949;SDS011;9100;48.700;9.316;2022-08-01T03:14:41;3.6;;;2.4;;
17949;SDS011;9100;48.700;9.316;2022-08-01T03:15:41;3.6;;;2.4;;
17949;SDS011;9100;48.700;9.316;2022-08-01T03:16:41;3.6;;;2.4;;
17949;SDS011;9100;48.700;9.316;2022-08-01T03:17:41;3.6;;;2.4;;
17949;SDS011;9100;48.700;9.316;2022-08-01T03:18:41;3.6;;;2.4;;
17949;SDS011;9100;48.700;9.316;2022-08-01T03:19:13;2.7;;;2.6;;
17949;SDS011;9100;48.700;9.316;2022-08-01T03:19:41;2.7;;;2.6;;
17949;SDS011;9100;48.700;9.316;2022-08-01T03:20:41;2.7;;;2.6;;
17949;SDS011;9100;48.700;9.316;2022-08-01T03:21:40;2.7;;;2.6;;
17949;SDS011;9100;48.700;9.316;2022-08-01T03:22:41;2.7;;;2.6;;
17949;SDS011;9100;48.700;9.316;2022-08-01T03:23:41;2.7;;;2.6;;
17949;SDS011;9100;48.700;9.316;2022-08-01T03:24:13;3;;;2.7;;
17949;SDS011;9100;48.700;9.316;2022-08-01T03:24:41;3;;;2.7;;
17949;SDS011;9100;48.700;9.316;2022-08-01T03:25:41;3;;;2.7;;
17949;SDS011;9100;48.700;9.316;2022-08-01T03:26:41;3;;;2.7;;
17949;SDS011;9100;48.700;9.316;2022-08-01T03:27:41;3;;;2.7;;
17949;SDS011;9100;48.700;9.316;2022-08-01T03:28:42;3;;;2.7;;
17949;SDS011;9100;48.700;9.316;2022-08-01T03:29:14;3;;;2.8;;
17949;SDS011;9100;48.700;9.316;2022-08-01T03:29:41;3;;;2.8;;
17949;SDS011;9100;48.700;9.316;2022-08-01T03:30:40;3;;;2.8;;
17949;SDS011;9100;48.700;9.316;2022-08-01T03:31:40;3;;;2.8;;
17949;SDS011;9100;48.700;9.316;2022-08-01T03:32:41;3;;;2.8;;
17949;SDS011;9100;48.700;9.316;2022-08-01T03:33:41;3;;;2.8;;
17949;SDS011;9100;48.700;9.316;2022-08-01T03:34:13;2.9;;;2.7;;
17949;SDS011;9100;48.700;9.316;2022-08-01T03:34:41;2.9;;;2.7;;
17949;SDS011;9100;48.700;9.316;2022-08-01T03:35:42;2.9;;;2.7;;
17949;SDS011;9100;48.700;9.316;2022-08-01T03:36:43;2.9;;;2.7;;
17949;SDS011;9100;48.700;9.316;2022-08-01T03:37:42;2.9;;;2.7;;
17949;SDS011;9100;48.700;9.316;2022-08-01T03:38:41;2.9;;;2.7;;
17949;SDS011;9100;48.700;9.316;2022-08-01T03:39:13;2.9;;;2.7;;
17949;SDS011;9100;48.700;9.316;2022-08-01T03:39:43;2.9;;;2.7;;
17949;SDS011;9100;48.700;9.316;2022-08-01T03:40:41;2.9;;;2.7;;
17949;SDS011;9100;48.700;9.316;2022-08-01T03:41:42;2.9;;;2.7;;
17949;SDS011;9100;48.700;9.316;2022-08-01T03:42:41;2.9;;;2.7;;
17949;SDS011;9100;48.700;9.316;2022-08-01T03:43:42;2.9;;;2.7;;
17949;SDS011;9100;48.700;9.316;2022-08-01T03:44:13;2.9;;;2.7;;
17949;SDS011;9100;48.700;9.316;2022-08-01T03:44:41;2.9;;;2.7;;
17949;SDS011;9100;48.700;9.316;2022-08-01T03:45:41;2.9;;;2.7;;
17949;SDS011;9100;48.700;9.316;2022-08-01T03:46:42;2.9;;;2.7;;
17949;SDS011;9100;48.700;9.316;2022-08-01T03:47:41;2.9;;;2.7;;
17949;SDS011;9100;48.700;9.316;2022-08-01T03:48:43;2.9;;;2.7;;
17949;SDS011;9100;48.700;9.316;2022-08-01T03:49:14;3.3;;;3;;
17949;SDS011;9100;48.700;9.316;2022-08-01T03:49:42;3.3;;;3;;
17949;SDS011;9100;48.700;9.316;2022-08-01T03:50:41;3.3;;;3;;
17949;SDS011;9100;48.700;9.316;2022-08-01T03:51:41;3.3;;;3;;
17949;SDS011;9100;48.700;9.316;2022-08-01T03:52:42;3.3;;;3;;
17949;SDS011;9100;48.700;9.316;2022-08-01T03:53:41;3.3;;;3;;
17949;SDS011;9100;48.700;9.316;2022-08-01T03:54:13;3.9;;;3.4;;
17949;SDS011;9100;48.700;9.316;2022-08-01T03:54:42;3.9;;;3.4;;
17949;SDS011;9100;48.700;9.316;2022-08-01T03:55:41;3.9;;;3.4;;
17949;SDS011;9100;48.700;9.316;2022-08-01T03:56:41;3.9;;;3.4;;
17949;SDS011;9100;48.700;9.316;2022-08-01T03:57:41;3.9;;;3.4;;
17949;SDS011;9100;48.700;9.316;2022-08-01T03:58:41;3.9;;;3.4;;
17949;SDS011;9100;48.700;9.316;2022-08-01T03:59:13;3;;;2.8;;
17949;SDS011;9100;48.700;9.316;2022-08-01T03:59:41;3;;;2.8;;
17949;SDS011;9100;48.700;9.316;2022-08-01T04:00:41;3;;;2.8;;
17949;SDS011;9100;48.700;9.316;2022-08-01T04:01:41;3;;;2.8;;
17949;SDS011;9100;48.700;9.316;2022-08-01T04:02:41;3;;;2.8;;
17949;SDS011;9100;48.700;9.316;2022-08-01T04:03:41;3;;;2.8;;
17949;SDS011;9100;48.700;9.316;2022-08-01T04:04:13;2.7;;;2.5;;
17949;SDS011;9100;48.700;9.316;2022-08-01T04:04:41;2.7;;;2.5;;
17949;SDS011;9100;48.700;9.316;2022-08-01T04:05:41;2.7;;;2.5;;
17949;SDS011;9100;48.700;9.316;2022-08-01T04:06:41;2.7;;;2.5;;
17949;SDS011;9100;48.700;9.316;2022-08-01T04:07:41;2.7;;;2.5;;
17949;SDS011;9100;48.700;9.316;2022-08-01T04:08:41;2.7;;;2.5;;
17949;SDS011;9100;48.700;9.316;2022-08-01T04:09:13;4.1;;;2.7;;
17949;SDS011;9100;48.700;9.316;2022-08-01T04:09:41;4.1;;;2.7;;
17949;SDS011;9100;48.700;9.316;2022-08-01T04:10:41;4.1;;;2.7;;
17949;SDS011;9100;48.700;9.316;2022-08-01T04:11:41;4.1;;;2.7;;
17949;SDS011;9100;48.700;9.316;2022-08-01T04:12:41;4.1;;;2.7;;
17949;SDS011;9100;48.700;9.316;2022-08-01T04:13:41;4.1;;;2.7;;
17949;SDS011;9100;48.700;9.316;2022-08-01T04:14:13;3;;;2.8;;
17949;SDS011;9100;48.700;9.316;2022-08-01T04:14:41;3;;;2.8;;
17949;SDS011;9100;48.700;9.316;2022-08-01T04:15:41;3;;;2.8;;
17949;SDS011;9100;48.700;9.316;2022-08-01T04:16:41;3;;;2.8;;
17949;SDS011;9100;48.700;9.316;2022-08-01T04:17:41;3;;;2.8;;
17949;SDS011;9100;48.700;9.316;2022-08-01T04:18:41;3;;;2.8;;
17949;SDS011;9100;48.700;9.316;2022-08-01T04:19:13;3.1;;;2.9;;
17949;SDS011;9100;48.700;9.316;2022-08-01T04:19:41;3.1;;;2.9;;
17949;SDS011;9100;48.700;9.316;2022-08-01T04:20:41;3.1;;;2.9;;
17949;SDS011;9100;48.700;9.316;2022-08-01T04:21:41;3.1;;;2.9;;
17949;SDS011;9100;48.700;9.316;2022-08-01T04:22:41;3.1;;;2.9;;
17949;SDS011;9100;48.700;9.316;2022-08-01T04:23:41;3.1;;;2.9;;
17949;SDS011;9100;48.700;9.316;2022-08-01T04:24:13;3.2;;;3;;
17949;SDS011;9100;48.700;9.316;2022-08-01T04:24:41;3.2;;;3;;
17949;SDS011;9100;48.700;9.316;2022-08-01T04:25:41;3.2;;;3;;
17949;SDS011;9100;48.700;9.316;2022-08-01T04:26:41;3.2;;;3;;
17949;SDS011;9100;48.700;9.316;2022-08-01T04:27:42;3.2;;;3;;
17949;SDS011;9100;48.700;9.316;2022-08-01T04:28:41;3.2;;;3;;
17949;SDS011;9100;48.700;9.316;2022-08-01T04:29:13;6.5;;;3;;
17949;SDS011;9100;48.700;9.316;2022-08-01T04:29:41;6.5;;;3;;
17949;SDS011;9100;48.700;9.316;2022-08-01T04:30:41;6.5;;;3;;
17949;SDS011;9100;48.700;9.316;2022-08-01T04:31:41;6.5;;;3;;
17949;SDS011;9100;48.700;9.316;2022-08-01T04:32:41;6.5;;;3;;
17949;SDS011;9100;48.700;9.316;2022-08-01T04:33:42;6.5;;;3;;
17949;SDS011;9100;48.700;9.316;2022-08-01T04:34:14;3;;;2.8;;
17949;SDS011;9100;48.700;9.316;2022-08-01T04:34:41;3;;;2.8;;
17949;SDS011;9100;48.700;9.316;2022-08-01T04:35:41;3;;;2.8;;
17949;SDS011;9100;48.700;9.316;2022-08-01T04:36:41;3;;;2.8;;
17949;SDS011;9100;48.700;9.316;2022-08-01T04:37:41;3;;;2.8;;
17949;SDS011;9100;48.700;9.316;2022-08-01T04:38:42;3;;;2.8;;
17949;SDS011;9100;48.700;9.316;2022-08-01T04:39:13;3.1;;;2.9;;
17949;SDS011;9100;48.700;9.316;2022-08-01T04:39:41;3.1;;;2.9;;
17949;SDS011;9100;48.700;9.316;2022-08-01T04:40:41;3.1;;;2.9;;
17949;SDS011;9100;48.700;9.316;2022-08-01T04:41:41;3.1;;;2.9;;
17949;SDS011;9100;48.700;9.316;2022-08-01T04:42:41;3.1;;;2.9;;
17949;SDS011;9100;48.700;9.316;2022-08-01T04:43:41;3.1;;;2.9;;
17949;SDS011;9100;48.700;9.316;2022-08-01T04:44:13;2.8;;;2.6;;
17949;SDS011;9100;48.700;9.316;2022-08-01T04:44:41;2.8;;;2.6;;
17949;SDS011;9100;48.700;9.316;2022-08-01T04:45:41;2.8;;;2.6;;
17949;SDS011;9100;48.700;9.316;2022-08-01T04:46:41;2.8;;;2.6;;
17949;SDS011;9100;48.700;9.316;2022-08-01T04:47:41;2.8;;;2.6;;
17949;SDS011;9100;48.700;9.316;2022-08-01T04:48:41;2.8;;;2.6;;
17949;SDS011;9100;48.700;9.316;2022-08-01T04:49:13;4.8;;;2.8;;
17949;SDS011;9100;48.700;9.316;2022-08-01T04:49:41;4.8;;;2.8;;
17949;SDS011;9100;48.700;9.316;2022-08-01T04:50:41;4.8;;;2.8;;
17949;SDS011;9100;48.700;9.316;2022-08-01T04:51:49;4.8;;;2.8;;
17949;SDS011;9100;48.700;9.316;2022-08-01T04:52:41;4.8;;;2.8;;
17949;SDS011;9100;48.700;9.316;2022-08-01T04:53:41;4.8;;;2.8;;
17949;SDS011;9100;48.700;9.316;2022-08-01T04:54:13;6;;;3.8;;
17949;SDS011;9100;48.700;9.316;2022-08-01T04:54:41;6;;;3.8;;
17949;SDS011;9100;48.700;9.316;2022-08-01T04:55:41;6;;;3.8;;
17949;SDS011;9100;48.700;9.316;2022-08-01T04:56:41;6;;;3.8;;
17949;SDS011;9100;48.700;9.316;2022-08-01T04:57:41;6;;;3.8;;
17949;SDS011;9100;48.700;9.316;2022-08-01T04:58:41;6;;;3.8;;
17949;SDS011;9100;48.700;9.316;2022-08-01T04:59:13;3.6;;;2.9;;
17949;SDS011;9100;48.700;9.316;2022-08-01T04:59:41;3.6;;;2.9;;
17949;SDS011;9100;48.700;9.316;2022-08-01T05:00:41;3.6;;;2.9;;
17949;SDS011;9100;48.700;9.316;2022-08-01T05:01:41;3.6;;;2.9;;
17949;SDS011;9100;48.700;9.316;2022-08-01T05:02:41;3.6;;;2.9;;
17949;SDS011;9100;48.700;9.316;2022-08-01T05:03:41;3.6;;;2.9;;
17949;SDS011;9100;48.700;9.316;2022-08-01T05:04:13;7.1;;;3.3;;
17949;SDS011;9100;48.700;9.316;2022-08-01T05:04:41;7.1;;;3.3;;
17949;SDS011;9100;48.700;9.316;2022-08-01T05:05:41;7.1;;;3.3;;
17949;SDS011;9100;48.700;9.316;2022-08-01T05:06:41;7.1;;;3.3;;
17949;SDS011;9100;48.700;9.316;2022-08-01T05:07:41;7.1;;;3.3;;
17949;SDS011;9100;48.700;9.316;2022-08-01T05:08:41;7.1;;;3.3;;
17949;SDS011;9100;48.700;9.316;2022-08-01T05:09:13;3;;;2.8;;
17949;SDS011;9100;48.700;9.316;2022-08-01T05:09:41;3;;;2.8;;
17949;SDS011;9100;48.700;9.316;2022-08-01T05:10:41;3;;;2.8;;
17949;SDS011;9100;48.700;9.316;2022-08-01T05:11:41;3;;;2.8;;
17949;SDS011;9100;48.700;9.316;2022-08-01T05:12:41;3;;;2.8;;
17949;SDS011;9100;48.700;9.316;2022-08-01T05:13:41;3;;;2.8;;
17949;SDS011;9100;48.700;9.316;2022-08-01T05:14:13;3;;;2.8;;
17949;SDS011;9100;48.700;9.316;2022-08-01T05:14:41;3;;;2.8;;
17949;SDS011;9100;48.700;9.316;2022-08-01T05:15:41;3;;;2.8;;
17949;SDS011;9100;48.700;9.316;2022-08-01T05:16:41;3;;;2.8;;
17949;SDS011;9100;48.700;9.316;2022-08-01T05:17:41;3;;;2.8;;
17949;SDS011;9100;48.700;9.316;2022-08-01T05:18:41;3;;;2.8;;
17949;SDS011;9100;48.700;9.316;2022-08-01T05:19:13;2.7;;;2.4;;